sensor_id;sensor_type;location;lat;lon;timestamp;pressure;altitude;pressure_sealevel;temperature;humidity
54369;BME280;40266;52.434;17.056;2023-04-23T00:01:07;100132.74;;;5.93;77.54
54369;BME280;40266;52.434;17.056;2023-04-23T00:03:55;100129.82;;;5.90;77.70
54369;BME280;40266;52.434;17.056;2023-04-23T00:06:41;100126.38;;;5.87;77.71
54369;BME280;40266;52.434;17.056;2023-04-23T00:09:26;100124.13;;;5.84;77.69
54369;BME280;40266;52.434;17.056;2023-04-23T00:12:11;100121.90;;;5.81;77.83
54369;BME280;40266;52.434;17.056;2023-04-23T00:14:54;100119.33;;;5.78;77.94
54369;BME280;40266;52.434;17.056;2023-04-23T00:17:39;100117.26;;;5.75;78.00
54369;BME280;40266;52.434;17.056;2023-04-23T00:20:21;100111.91;;;5.72;78.07
54369;BME280;40266;52.434;17.056;2023-04-23T00:23:04;100110.55;;;5.68;78.24
54369;BME280;40266;52.434;17.056;2023-04-23T00:25:47;100107.79;;;5.66;78.31
54369;BME280;40266;52.434;17.056;2023-04-23T00:28:31;100107.45;;;5.62;78.59
54369;BME280;40266;52.434;17.056;2023-04-23T00:31:14;100106.09;;;5.61;78.35
54369;BME280;40266;52.434;17.056;2023-04-23T00:33:58;100104.22;;;5.57;78.37
54369;BME280;40266;52.434;17.056;2023-04-23T00:36:41;100104.58;;;5.55;78.53
54369;BME280;40266;52.434;17.056;2023-04-23T00:39:24;100099.40;;;5.52;78.53
54369;BME280;40266;52.434;17.056;2023-04-23T00:42:07;100096.46;;;5.49;78.79
54369;BME280;40266;52.434;17.056;2023-04-23T00:44:54;100095.10;;;5.46;78.75
54369;BME280;40266;52.434;17.056;2023-04-23T00:47:39;100090.43;;;5.43;79.02
54369;BME280;40266;52.434;17.056;2023-04-23T00:50:22;100086.64;;;5.40;79.02
54369;BME280;40266;52.434;17.056;2023-04-23T00:53:05;100079.56;;;5.38;79.22
54369;BME280;40266;52.434;17.056;2023-04-23T00:55:49;100080.61;;;5.35;79.38
54369;BME280;40266;52.434;17.056;2023-04-23T00:58:33;100073.17;;;5.32;79.36
54369;BME280;40266;52.434;17.056;2023-04-23T01:01:16;100073.55;;;5.29;79.60
54369;BME280;40266;52.434;17.056;2023-04-23T01:04:03;100070.63;;;5.26;79.60
54369;BME280;40266;52.434;17.056;2023-04-23T01:06:48;100071.32;;;5.26;79.65
54369;BME280;40266;52.434;17.056;2023-04-23T01:09:32;100065.96;;;5.25;79.80
54369;BME280;40266;52.434;17.056;2023-04-23T01:12:16;100066.14;;;5.24;79.80
54369;BME280;40266;52.434;17.056;2023-04-23T01:14:59;100064.41;;;5.23;79.86
54369;BME280;40266;52.434;17.056;2023-04-23T01:17:44;100061.13;;;5.22;79.90
54369;BME280;40266;52.434;17.056;2023-04-23T01:20:29;100062.33;;;5.22;79.97
54369;BME280;40266;52.434;17.056;2023-04-23T01:23:12;100057.83;;;5.20;79.99
54369;BME280;40266;52.434;17.056;2023-04-23T01:25:56;100059.40;;;5.20;79.98
54369;BME280;40266;52.434;17.056;2023-04-23T01:28:42;100058.89;;;5.20;80.05
54369;BME280;40266;52.434;17.056;2023-04-23T01:31:26;100059.59;;;5.20;80.13
54369;BME280;40266;52.434;17.056;2023-04-23T01:34:11;100055.77;;;5.20;80.15
54369;BME280;40266;52.434;17.056;2023-04-23T01:36:55;100051.27;;;5.19;80.24
54369;BME280;40266;52.434;17.056;2023-04-23T01:39:38;100052.14;;;5.18;80.33
54369;BME280;40266;52.434;17.056;2023-04-23T01:42:22;100048.16;;;5.17;80.43
54369;BME280;40266;52.434;17.056;2023-04-23T01:45:08;100051.98;;;5.16;80.44
54369;BME280;40266;52.434;17.056;2023-04-23T01:47:52;100048.00;;;5.16;80.59
54369;BME280;40266;52.434;17.056;2023-04-23T01:50:36;100049.05;;;5.14;80.59
54369;BME280;40266;52.434;17.056;2023-04-23T01:53:20;100045.06;;;5.13;80.77
54369;BME280;40266;52.434;17.056;2023-04-23T01:56:04;100043.69;;;5.12;81.09
54369;BME280;40266;52.434;17.056;2023-04-23T01:58:47;100041.27;;;5.11;81.07
54369;BME280;40266;52.434;17.056;2023-04-23T02:02:00;100040.24;;;5.10;81.23
54369;BME280;40266;52.434;17.056;2023-04-23T02:04:44;100031.42;;;5.09;81.62
54369;BME280;40266;52.434;17.056;2023-04-23T02:07:28;100031.77;;;5.09;81.63
54369;BME280;40266;52.434;17.056;2023-04-23T02:10:12;100030.70;;;5.10;81.91
54369;BME280;40266;52.434;17.056;2023-04-23T02:12:57;100030.89;;;5.11;81.70
54369;BME280;40266;52.434;17.056;2023-04-23T02:15:40;100029.50;;;5.11;81.71
54369;BME280;40266;52.434;17.056;2023-04-23T02:18:25;100025.00;;;5.09;81.78
54369;BME280;40266;52.434;17.056;2023-04-23T02:21:08;100029.17;;;5.08;81.80
54369;BME280;40266;52.434;17.056;2023-04-23T02:23:52;100025.37;;;5.08;81.70
54369;BME280;40266;52.434;17.056;2023-04-23T02:26:35;100025.37;;;5.07;81.76
54369;BME280;40266;52.434;17.056;2023-04-23T02:29:19;100027.27;;;5.06;81.68
54369;BME280;40266;52.434;17.056;2023-04-23T02:32:03;100030.75;;;5.05;81.74
54369;BME280;40266;52.434;17.056;2023-04-23T02:34:47;100028.68;;;5.03;81.74
54369;BME280;40266;52.434;17.056;2023-04-23T02:37:31;100028.69;;;5.01;81.81
54369;BME280;40266;52.434;17.056;2023-04-23T02:40:15;100027.48;;;5.00;82.02
54369;BME280;40266;52.434;17.056;2023-04-23T02:42:58;100030.78;;;4.99;82.10
54369;BME280;40266;52.434;17.056;2023-04-23T02:45:42;100025.60;;;4.97;82.25
54369;BME280;40266;52.434;17.056;2023-04-23T02:48:27;100026.29;;;4.97;82.20
54369;BME280;40266;52.434;17.056;2023-04-23T02:51:12;100024.73;;;4.95;82.20
54369;BME280;40266;52.434;17.056;2023-04-23T02:53:56;100026.48;;;4.93;82.16
54369;BME280;40266;52.434;17.056;2023-04-23T02:56:40;100024.92;;;4.94;82.31
54369;BME280;40266;52.434;17.056;2023-04-23T02:59:23;100023.20;;;4.93;82.33
54369;BME280;40266;52.434;17.056;2023-04-23T03:02:07;100023.36;;;4.93;82.58
54369;BME280;40266;52.434;17.056;2023-04-23T03:04:51;100020.08;;;4.92;82.71
54369;BME280;40266;52.434;17.056;2023-04-23T03:07:34;100021.48;;;4.93;82.51
54369;BME280;40266;52.434;17.056;2023-04-23T03:10:18;100019.92;;;4.92;82.60
54369;BME280;40266;52.434;17.056;2023-04-23T03:13:03;100016.81;;;4.92;82.48
54369;BME280;40266;52.434;17.056;2023-04-23T03:15:47;100016.98;;;4.91;82.50
54369;BME280;40266;52.434;17.056;2023-04-23T03:18:30;100014.73;;;4.90;82.64
54369;BME280;40266;52.434;17.056;2023-04-23T03:21:13;100013.86;;;4.88;82.71
54369;BME280;40266;52.434;17.056;2023-04-23T03:23:57;100014.23;;;4.87;82.82
54369;BME280;40266;52.434;17.056;2023-04-23T03:26:40;100015.42;;;4.85;82.69
54369;BME280;40266;52.434;17.056;2023-04-23T03:29:24;100010.60;;;4.85;82.86
54369;BME280;40266;52.434;17.056;2023-04-23T03:32:08;100011.98;;;4.83;82.83
54369;BME280;40266;52.434;17.056;2023-04-23T03:34:53;100011.84;;;4.81;82.92
54369;BME280;40266;52.434;17.056;2023-04-23T03:37:39;100008.04;;;4.80;83.00
54369;BME280;40266;52.434;17.056;2023-04-23T03:40:23;100011.66;;;4.80;83.10
54369;BME280;40266;52.434;17.056;2023-04-23T03:43:08;100008.89;;;4.79;83.21
54369;BME280;40266;52.434;17.056;2023-04-23T03:46:10;100008.89;;;4.79;83.32
54369;BME280;40266;52.434;17.056;2023-04-23T03:48:56;100008.90;;;4.78;83.31
54369;BME280;40266;52.434;17.056;2023-04-23T03:51:41;100007.17;;;4.77;83.25
54369;BME280;40266;52.434;17.056;2023-04-23T03:54:25;100012.37;;;4.78;83.38
54369;BME280;40266;52.434;17.056;2023-04-23T03:57:25;100009.09;;;4.78;83.48
54369;BME280;40266;52.434;17.056;2023-04-23T04:00:48;100006.48;;;4.79;83.56
54369;BME280;40266;52.434;17.056;2023-04-23T04:03:31;100004.55;;;4.80;83.42
54369;BME280;40266;52.434;17.056;2023-04-23T04:06:15;100004.92;;;4.80;83.44
54369;BME280;40266;52.434;17.056;2023-04-23T04:08:58;100007.32;;;4.83;83.58
54369;BME280;40266;52.434;17.056;2023-04-23T04:11:43;100007.14;;;4.86;83.70
54369;BME280;40266;52.434;17.056;2023-04-23T04:14:26;100004.01;;;4.89;83.78
54369;BME280;40266;52.434;17.056;2023-04-23T04:17:10;100006.39;;;4.95;83.80
54369;BME280;40266;52.434;17.056;2023-04-23T04:19:54;100010.17;;;4.99;83.91
54369;BME280;40266;52.434;17.056;2023-04-23T04:22:38;100008.77;;;5.04;83.91
54369;BME280;40266;52.434;17.056;2023-04-23T04:25:22;100006.64;;;5.11;84.19
54369;BME280;40266;52.434;17.056;2023-04-23T04:28:06;100004.19;;;5.18;84.34
54369;BME280;40266;52.434;17.056;2023-04-23T04:30:54;100003.97;;;5.25;84.30
54369;BME280;40266;52.434;17.056;2023-04-23T04:33:39;100005.30;;;5.34;84.37
54369;BME280;40266;52.434;17.056;2023-04-23T04:36:23;100004.52;;;5.44;84.56
54369;BME280;40266;52.434;17.056;2023-04-23T04:39:09;100008.06;;;5.60;84.83
54369;BME280;40266;52.434;17.056;2023-04-23T04:41:52;100002.88;;;5.78;84.79
54369;BME280;40266;52.434;17.056;2023-04-23T04:44:36;100007.71;;;6.03;84.89
54369;BME280;40266;52.434;17.056;2023-04-23T04:47:19;100004.84;;;6.45;84.98
54369;BME280;40266;52.434;17.056;2023-04-23T04:50:04;100006.70;;;6.79;84.36
54369;BME280;40266;52.434;17.056;2023-04-23T04:52:48;100005.05;;;7.12;83.74
54369;BME280;40266;52.434;17.056;2023-04-23T04:55:32;100001.48;;;7.42;83.17
54369;BME280;40266;52.434;17.056;2023-04-23T04:58:16;100004.65;;;7.73;82.58
54369;BME280;40266;52.434;17.056;2023-04-23T05:00:59;100002.71;;;8.05;81.78
54369;BME280;40266;52.434;17.056;2023-04-23T05:03:43;100001.27;;;8.37;81.02
54369;BME280;40266;52.434;17.056;2023-04-23T05:06:26;99992.73;;;8.74;80.22
54369;BME280;40266;52.434;17.056;2023-04-23T05:09:10;99992.23;;;9.35;79.18
54369;BME280;40266;52.434;17.056;2023-04-23T05:11:53;99990.64;;;9.87;77.88
54369;BME280;40266;52.434;17.056;2023-04-23T05:14:37;99992.27;;;10.19;76.79
54369;BME280;40266;52.434;17.056;2023-04-23T05:17:20;99985.66;;;10.57;75.53
54369;BME280;40266;52.434;17.056;2023-04-23T05:20:05;99981.77;;;11.72;73.20
54369;BME280;40266;52.434;17.056;2023-04-23T05:22:48;99978.59;;;12.78;71.10
54369;BME280;40266;52.434;17.056;2023-04-23T05:25:32;99976.05;;;13.66;69.08
54369;BME280;40266;52.434;17.056;2023-04-23T05:28:17;99973.08;;;14.28;66.18
54369;BME280;40266;52.434;17.056;2023-04-23T05:31:01;99969.27;;;14.97;64.77
54369;BME280;40266;52.434;17.056;2023-04-23T05:33:45;99975.54;;;15.06;63.55
54369;BME280;40266;52.434;17.056;2023-04-23T05:36:32;99974.23;;;15.12;62.21
54369;BME280;40266;52.434;17.056;2023-04-23T05:39:15;99973.84;;;14.67;61.39
54369;BME280;40266;52.434;17.056;2023-04-23T05:41:59;99978.15;;;14.91;60.57
54369;BME280;40266;52.434;17.056;2023-04-23T05:44:42;99974.27;;;15.10;59.45
54369;BME280;40266;52.434;17.056;2023-04-23T05:47:25;99978.27;;;15.56;58.30
54369;BME280;40266;52.434;17.056;2023-04-23T05:50:09;99975.06;;;15.70;57.25
54369;BME280;40266;52.434;17.056;2023-04-23T05:52:53;99974.41;;;15.33;56.51
54369;BME280;40266;52.434;17.056;2023-04-23T05:55:36;99977.72;;;15.01;56.95
54369;BME280;40266;52.434;17.056;2023-04-23T05:58:19;99977.16;;;14.79;57.23
54369;BME280;40266;52.434;17.056;2023-04-23T06:01:03;99974.58;;;14.42;57.31
54369;BME280;40266;52.434;17.056;2023-04-23T06:03:46;99974.74;;;14.22;57.76
54369;BME280;40266;52.434;17.056;2023-04-23T06:06:30;99974.41;;;14.05;57.38
54369;BME280;40266;52.434;17.056;2023-04-23T06:09:13;99971.36;;;13.94;58.33
54369;BME280;40266;52.434;17.056;2023-04-23T06:11:56;99972.88;;;13.92;58.37
54369;BME280;40266;52.434;17.056;2023-04-23T06:14:39;99965.27;;;14.09;58.46
54369;BME280;40266;52.434;17.056;2023-04-23T06:17:23;99965.83;;;15.06;57.94
54369;BME280;40266;52.434;17.056;2023-04-23T06:20:07;99959.95;;;16.52;56.50
54369;BME280;40266;52.434;17.056;2023-04-23T06:22:52;99953.61;;;17.73;54.06
54369;BME280;40266;52.434;17.056;2023-04-23T06:25:36;99955.08;;;18.49;52.53
54369;BME280;40266;52.434;17.056;2023-04-23T06:28:19;99951.05;;;18.83;50.08
54369;BME280;40266;52.434;17.056;2023-04-23T06:31:20;99951.70;;;19.53;49.20
54369;BME280;40266;52.434;17.056;2023-04-23T06:34:04;99947.71;;;20.96;48.25
54369;BME280;40266;52.434;17.056;2023-04-23T06:36:47;99943.69;;;21.47;46.02
54369;BME280;40266;52.434;17.056;2023-04-23T06:39:30;99940.18;;;22.03;45.30
54369;BME280;40266;52.434;17.056;2023-04-23T06:42:14;99940.64;;;21.92;44.67
54369;BME280;40266;52.434;17.056;2023-04-23T06:45:06;99940.05;;;21.57;43.93
54369;BME280;40266;52.434;17.056;2023-04-23T06:47:49;99940.14;;;20.95;44.26
54369;BME280;40266;52.434;17.056;2023-04-23T06:50:33;99944.04;;;20.40;43.78
54369;BME280;40266;52.434;17.056;2023-04-23T06:53:17;99942.11;;;19.66;45.02
54369;BME280;40266;52.434;17.056;2023-04-23T06:56:00;99946.73;;;19.25;46.32
54369;BME280;40266;52.434;17.056;2023-04-23T06:58:43;99948.48;;;19.07;46.98
54369;BME280;40266;52.434;17.056;2023-04-23T07:01:34;99952.04;;;19.23;47.31
54369;BME280;40266;52.434;17.056;2023-04-23T07:04:18;99950.02;;;19.29;46.66
54369;BME280;40266;52.434;17.056;2023-04-23T07:07:01;99947.40;;;19.13;46.35
54369;BME280;40266;52.434;17.056;2023-04-23T07:09:47;99947.17;;;19.18;47.09
54369;BME280;40266;52.434;17.056;2023-04-23T07:12:38;99949.41;;;19.47;47.23
54369;BME280;40266;52.434;17.056;2023-04-23T07:15:22;99936.97;;;19.72;45.98
54369;BME280;40266;52.434;17.056;2023-04-23T07:18:09;99928.21;;;20.35;46.43
54369;BME280;40266;52.434;17.056;2023-04-23T07:20:53;99928.33;;;21.26;45.37
54369;BME280;40266;52.434;17.056;2023-04-23T07:23:37;99920.48;;;21.43;44.73
54369;BME280;40266;52.434;17.056;2023-04-23T07:26:24;99916.73;;;21.29;44.29
54369;BME280;40266;52.434;17.056;2023-04-23T07:29:09;99915.21;;;21.04;44.65
54369;BME280;40266;52.434;17.056;2023-04-23T07:31:59;99914.64;;;21.09;43.50
54369;BME280;40266;52.434;17.056;2023-04-23T07:34:43;99916.35;;;21.20;43.43
54369;BME280;40266;52.434;17.056;2023-04-23T07:37:27;99914.81;;;21.19;43.89
54369;BME280;40266;52.434;17.056;2023-04-23T07:40:10;99914.64;;;21.33;43.25
54369;BME280;40266;52.434;17.056;2023-04-23T07:42:55;99912.00;;;21.87;42.52
54369;BME280;40266;52.434;17.056;2023-04-23T07:45:55;99911.71;;;22.55;42.45
54369;BME280;40266;52.434;17.056;2023-04-23T07:48:40;99907.78;;;22.80;41.72
54369;BME280;40266;52.434;17.056;2023-04-23T07:51:23;99910.11;;;22.58;41.71
54369;BME280;40266;52.434;17.056;2023-04-23T07:54:09;99908.35;;;22.42;42.27
54369;BME280;40266;52.434;17.056;2023-04-23T07:56:52;99903.61;;;22.29;43.13
54369;BME280;40266;52.434;17.056;2023-04-23T07:59:36;99901.83;;;22.23;43.26
54369;BME280;40266;52.434;17.056;2023-04-23T08:02:22;99896.27;;;22.09;42.91
54369;BME280;40266;52.434;17.056;2023-04-23T08:05:08;99898.46;;;22.18;43.17
54369;BME280;40266;52.434;17.056;2023-04-23T08:07:52;99896.63;;;22.41;41.90
54369;BME280;40266;52.434;17.056;2023-04-23T08:10:36;99890.48;;;22.38;40.80
54369;BME280;40266;52.434;17.056;2023-04-23T08:13:20;99896.64;;;22.25;40.82
54369;BME280;40266;52.434;17.056;2023-04-23T08:16:03;99893.25;;;22.26;39.92
54369;BME280;40266;52.434;17.056;2023-04-23T08:18:48;99886.64;;;22.12;39.62
54369;BME280;40266;52.434;17.056;2023-04-23T08:21:47;99888.55;;;21.99;38.95
54369;BME280;40266;52.434;17.056;2023-04-23T08:24:31;99882.16;;;21.87;39.64
54369;BME280;40266;52.434;17.056;2023-04-23T08:27:14;99879.01;;;21.96;39.99
54369;BME280;40266;52.434;17.056;2023-04-23T08:29:57;99882.04;;;22.12;39.78
54369;BME280;40266;52.434;17.056;2023-04-23T08:32:41;99877.66;;;22.34;38.66
54369;BME280;40266;52.434;17.056;2023-04-23T08:35:25;99881.42;;;22.45;38.29
54369;BME280;40266;52.434;17.056;2023-04-23T08:38:08;99879.67;;;22.64;37.71
54369;BME280;40266;52.434;17.056;2023-04-23T08:40:55;99877.07;;;22.83;38.00
54369;BME280;40266;52.434;17.056;2023-04-23T08:43:46;99877.03;;;23.55;36.74
54369;BME280;40266;52.434;17.056;2023-04-23T08:46:30;99877.20;;;23.66;35.54
54369;BME280;40266;52.434;17.056;2023-04-23T08:49:17;99876.17;;;23.16;35.10
54369;BME280;40266;52.434;17.056;2023-04-23T08:52:22;99875.99;;;22.84;36.17
54369;BME280;40266;52.434;17.056;2023-04-23T08:55:06;99865.11;;;22.64;35.96
54369;BME280;40266;52.434;17.056;2023-04-23T08:57:57;99862.16;;;22.46;37.20
54369;BME280;40266;52.434;17.056;2023-04-23T09:00:40;99854.61;;;22.37;37.87
54369;BME280;40266;52.434;17.056;2023-04-23T09:03:27;99854.56;;;22.27;36.83
54369;BME280;40266;52.434;17.056;2023-04-23T09:06:22;99848.52;;;22.04;37.24
54369;BME280;40266;52.434;17.056;2023-04-23T09:09:07;99849.61;;;21.99;38.20
54369;BME280;40266;52.434;17.056;2023-04-23T09:11:51;99849.83;;;22.01;38.03
54369;BME280;40266;52.434;17.056;2023-04-23T09:14:36;99841.05;;;21.99;37.62
54369;BME280;40266;52.434;17.056;2023-04-23T09:17:21;99841.35;;;21.93;37.73
54369;BME280;40266;52.434;17.056;2023-04-23T09:20:05;99843.67;;;21.86;37.12
54369;BME280;40266;52.434;17.056;2023-04-23T09:22:51;99835.71;;;21.77;37.45
54369;BME280;40266;52.434;17.056;2023-04-23T09:25:34;99839.02;;;21.80;37.81
54369;BME280;40266;52.434;17.056;2023-04-23T09:28:18;99837.20;;;21.83;37.98
54369;BME280;40266;52.434;17.056;2023-04-23T09:31:04;99831.88;;;21.87;37.89
54369;BME280;40266;52.434;17.056;2023-04-23T09:33:52;99824.23;;;21.94;37.76
54369;BME280;40266;52.434;17.056;2023-04-23T09:36:36;99822.20;;;21.97;38.00
54369;BME280;40266;52.434;17.056;2023-04-23T09:39:23;99816.40;;;22.05;37.80
54369;BME280;40266;52.434;17.056;2023-04-23T09:42:07;99811.69;;;22.13;37.51
54369;BME280;40266;52.434;17.056;2023-04-23T09:44:59;99808.46;;;22.23;37.70
54369;BME280;40266;52.434;17.056;2023-04-23T09:47:50;99802.33;;;22.26;37.26
54369;BME280;40266;52.434;17.056;2023-04-23T09:50:37;99800.73;;;22.26;37.14
54369;BME280;40266;52.434;17.056;2023-04-23T09:53:21;99800.29;;;22.25;37.05
54369;BME280;40266;52.434;17.056;2023-04-23T09:56:05;99795.35;;;22.24;36.80
54369;BME280;40266;52.434;17.056;2023-04-23T09:58:49;99796.17;;;22.23;37.10
54369;BME280;40266;52.434;17.056;2023-04-23T10:01:33;99787.13;;;22.29;36.90
54369;BME280;40266;52.434;17.056;2023-04-23T10:04:21;99787.77;;;22.35;36.86
54369;BME280;40266;52.434;17.056;2023-04-23T10:07:05;99784.39;;;22.41;37.42
54369;BME280;40266;52.434;17.056;2023-04-23T10:10:04;99782.05;;;22.55;37.43
54369;BME280;40266;52.434;17.056;2023-04-23T10:12:51;99777.61;;;22.64;36.99
54369;BME280;40266;52.434;17.056;2023-04-23T10:15:37;99778.75;;;22.69;36.26
54369;BME280;40266;52.434;17.056;2023-04-23T10:18:21;99771.44;;;22.65;35.49
54369;BME280;40266;52.434;17.056;2023-04-23T10:21:05;99778.60;;;22.67;35.81
54369;BME280;40266;52.434;17.056;2023-04-23T10:23:50;99776.50;;;22.70;35.00
54369;BME280;40266;52.434;17.056;2023-04-23T10:26:33;99775.58;;;22.71;35.44
54369;BME280;40266;52.434;17.056;2023-04-23T10:29:25;99775.58;;;22.73;34.75
54369;BME280;40266;52.434;17.056;2023-04-23T10:32:10;99777.84;;;22.76;34.22
54369;BME280;40266;52.434;17.056;2023-04-23T10:34:54;99769.48;;;22.78;34.93
54369;BME280;40266;52.434;17.056;2023-04-23T10:37:37;99773.21;;;22.87;34.80
54369;BME280;40266;52.434;17.056;2023-04-23T10:40:28;99765.56;;;22.93;34.98
54369;BME280;40266;52.434;17.056;2023-04-23T10:43:12;99768.38;;;23.04;34.60
54369;BME280;40266;52.434;17.056;2023-04-23T10:45:56;99764.53;;;23.12;34.80
54369;BME280;40266;52.434;17.056;2023-04-23T10:52:00;99768.27;;;23.31;34.15
54369;BME280;40266;52.434;17.056;2023-04-23T10:54:49;99764.75;;;23.39;34.29
54369;BME280;40266;52.434;17.056;2023-04-23T11:01:18;99760.38;;;23.59;34.46
54369;BME280;40266;52.434;17.056;2023-04-23T11:04:28;99756.55;;;23.60;34.11
54369;BME280;40266;52.434;17.056;2023-04-23T11:07:12;99753.07;;;23.57;34.16
54369;BME280;40266;52.434;17.056;2023-04-23T11:09:58;99759.00;;;23.56;34.36
54369;BME280;40266;52.434;17.056;2023-04-23T11:12:42;99759.02;;;23.56;34.33
54369;BME280;40266;52.434;17.056;2023-04-23T11:15:26;99761.56;;;23.47;34.23
54369;BME280;40266;52.434;17.056;2023-04-23T11:18:10;99765.98;;;23.35;34.62
54369;BME280;40266;52.434;17.056;2023-04-23T11:20:55;99764.80;;;23.26;34.90
54369;BME280;40266;52.434;17.056;2023-04-23T11:23:39;99762.41;;;23.25;35.33
54369;BME280;40266;52.434;17.056;2023-04-23T11:26:33;99768.74;;;23.25;35.07
54369;BME280;40266;52.434;17.056;2023-04-23T11:29:44;99772.31;;;23.26;34.67
54369;BME280;40266;52.434;17.056;2023-04-23T11:33:22;99773.83;;;23.29;34.31
54369;BME280;40266;52.434;17.056;2023-04-23T11:36:17;99771.87;;;23.26;34.53
54369;BME280;40266;52.434;17.056;2023-04-23T11:39:08;99765.35;;;23.17;34.00
54369;BME280;40266;52.434;17.056;2023-04-23T11:41:53;99765.85;;;23.07;34.48
54369;BME280;40266;52.434;17.056;2023-04-23T11:44:40;99768.81;;;23.04;34.62
54369;BME280;40266;52.434;17.056;2023-04-23T11:47:24;99767.73;;;23.00;34.98
54369;BME280;40266;52.434;17.056;2023-04-23T11:50:22;99764.16;;;23.10;35.27
54369;BME280;40266;52.434;17.056;2023-04-23T11:54:03;99760.13;;;23.26;34.80
54369;BME280;40266;52.434;17.056;2023-04-23T11:56:55;99760.85;;;23.22;34.62
54369;BME280;40266;52.434;17.056;2023-04-23T11:59:47;99766.16;;;23.18;35.09
54369;BME280;40266;52.434;17.056;2023-04-23T12:02:30;99768.89;;;23.15;35.33
54369;BME280;40266;52.434;17.056;2023-04-23T12:05:28;99767.58;;;23.12;35.44
54369;BME280;40266;52.434;17.056;2023-04-23T12:08:33;99768.98;;;23.01;35.86
54369;BME280;40266;52.434;17.056;2023-04-23T12:11:49;99771.27;;;22.86;36.06
54369;BME280;40266;52.434;17.056;2023-04-23T12:14:38;99772.67;;;22.80;36.52
54369;BME280;40266;52.434;17.056;2023-04-23T12:18:08;99772.44;;;22.72;36.28
54369;BME280;40266;52.434;17.056;2023-04-23T12:21:09;99772.60;;;22.62;36.90
54369;BME280;40266;52.434;17.056;2023-04-23T12:23:59;99773.31;;;22.57;37.16
54369;BME280;40266;52.434;17.056;2023-04-23T12:26:54;99779.67;;;22.56;37.34
54369;BME280;40266;52.434;17.056;2023-04-23T12:29:45;99779.82;;;22.43;37.56
54369;BME280;40266;52.434;17.056;2023-04-23T12:32:36;99782.30;;;22.36;37.60
54369;BME280;40266;52.434;17.056;2023-04-23T12:38:38;99787.55;;;22.02;38.32
54369;BME280;40266;52.434;17.056;2023-04-23T12:41:25;99790.10;;;21.87;39.30
54369;BME280;40266;52.434;17.056;2023-04-23T12:44:46;99795.55;;;21.79;40.02
54369;BME280;40266;52.434;17.056;2023-04-23T12:47:37;99795.70;;;21.67;40.20
54369;BME280;40266;52.434;17.056;2023-04-23T12:50:24;99797.06;;;21.59;40.76
54369;BME280;40266;52.434;17.056;2023-04-23T12:53:08;99807.10;;;21.54;41.38
54369;BME280;40266;52.434;17.056;2023-04-23T12:56:05;99803.66;;;21.40;41.82
54369;BME280;40266;52.434;17.056;2023-04-23T12:58:58;99804.30;;;21.29;42.42
54369;BME280;40266;52.434;17.056;2023-04-23T13:01:44;99795.36;;;21.13;43.33
54369;BME280;40266;52.434;17.056;2023-04-23T13:04:34;99803.52;;;21.09;44.13
54369;BME280;40266;52.434;17.056;2023-04-23T13:07:18;99798.55;;;20.97;44.45
54369;BME280;40266;52.434;17.056;2023-04-23T13:10:33;99806.23;;;20.92;45.14
54369;BME280;40266;52.434;17.056;2023-04-23T13:13:36;99803.66;;;20.78;45.05
54369;BME280;40266;52.434;17.056;2023-04-23T13:16:28;99803.23;;;20.65;45.57
54369;BME280;40266;52.434;17.056;2023-04-23T13:19:18;99802.11;;;20.51;46.13
54369;BME280;40266;52.434;17.056;2023-04-23T13:22:11;99804.68;;;20.37;47.52
54369;BME280;40266;52.434;17.056;2023-04-23T13:25:23;99801.48;;;20.25;48.24
54369;BME280;40266;52.434;17.056;2023-04-23T13:28:16;99799.90;;;20.14;48.47
54369;BME280;40266;52.434;17.056;2023-04-23T13:31:06;99792.16;;;20.11;48.89
54369;BME280;40266;52.434;17.056;2023-04-23T13:34:17;99788.49;;;20.11;48.94
54369;BME280;40266;52.434;17.056;2023-04-23T13:37:01;99790.63;;;20.11;49.23
54369;BME280;40266;52.434;17.056;2023-04-23T13:40:02;99789.98;;;20.17;49.27
54369;BME280;40266;52.434;17.056;2023-04-23T13:42:57;99787.15;;;20.22;48.89
54369;BME280;40266;52.434;17.056;2023-04-23T13:45:40;99786.59;;;20.28;48.76
54369;BME280;40266;52.434;17.056;2023-04-23T13:48:40;99783.98;;;20.29;48.59
54369;BME280;40266;52.434;17.056;2023-04-23T13:51:23;99789.93;;;20.30;48.65
54369;BME280;40266;52.434;17.056;2023-04-23T13:54:17;99791.29;;;20.23;49.27
54369;BME280;40266;52.434;17.056;2023-04-23T13:57:12;99787.35;;;20.14;49.84
54369;BME280;40266;52.434;17.056;2023-04-23T14:09:06;99782.36;;;19.99;50.40
54369;BME280;40266;52.434;17.056;2023-04-23T14:12:44;99788.80;;;19.98;50.68
54369;BME280;40266;52.434;17.056;2023-04-23T14:15:56;99799.57;;;19.84;51.71
54369;BME280;40266;52.434;17.056;2023-04-23T14:19:34;99808.59;;;19.53;54.37
54369;BME280;40266;52.434;17.056;2023-04-23T14:22:22;99814.30;;;19.15;56.06
54369;BME280;40266;52.434;17.056;2023-04-23T14:25:14;99815.97;;;18.79;59.01
54369;BME280;40266;52.434;17.056;2023-04-23T14:28:08;99808.09;;;18.48;60.30
54369;BME280;40266;52.434;17.056;2023-04-23T14:31:24;99805.45;;;18.31;62.26
54369;BME280;40266;52.434;17.056;2023-04-23T14:35:03;99804.45;;;18.24;63.50
54369;BME280;40266;52.434;17.056;2023-04-23T14:38:04;99804.22;;;18.25;64.53
54369;BME280;40266;52.434;17.056;2023-04-23T14:41:01;99801.52;;;18.37;65.02
54369;BME280;40266;52.434;17.056;2023-04-23T14:44:20;99802.23;;;18.48;65.04
54369;BME280;40266;52.434;17.056;2023-04-23T14:47:51;99800.48;;;18.58;65.33
54369;BME280;40266;52.434;17.056;2023-04-23T14:51:46;99799.93;;;18.67;65.05
54369;BME280;40266;52.434;17.056;2023-04-23T14:59:41;99794.88;;;18.69;63.89
54369;BME280;40266;52.434;17.056;2023-04-23T15:03:38;99789.67;;;18.62;63.34
54369;BME280;40266;52.434;17.056;2023-04-23T15:06:56;99780.70;;;18.58;64.22